createdAt,value
2022-11-28T00:01:14.086Z,8.51
2022-11-28T00:03:40.753Z,8.49
2022-11-28T00:06:07.443Z,8.51
2022-11-28T00:08:34.345Z,8.43
2022-11-28T00:11:01.024Z,8.36
2022-11-28T00:13:27.637Z,8.40
2022-11-28T00:15:54.324Z,8.27
2022-11-28T00:18:21.050Z,8.15
2022-11-28T00:20:47.714Z,8.19
2022-11-28T00:23:14.370Z,7.99
2022-11-28T00:25:41.014Z,7.84
2022-11-28T00:28:07.633Z,7.76
2022-11-28T00:30:34.297Z,7.70
2022-11-28T00:33:00.932Z,7.57
2022-11-28T00:35:27.521Z,7.57
2022-11-28T00:37:54.150Z,7.51
2022-11-28T00:40:20.802Z,7.46
2022-11-28T00:42:47.437Z,7.44
2022-11-28T00:45:14.138Z,7.36
2022-11-28T00:47:40.766Z,7.27
2022-11-28T00:50:07.361Z,7.25
2022-11-28T00:52:33.988Z,7.21
2022-11-28T00:55:00.632Z,7.19
2022-11-28T00:57:27.329Z,7.09
2022-11-28T00:59:53.946Z,6.93
2022-11-28T01:02:20.652Z,6.86
2022-11-28T01:04:47.370Z,6.76
2022-11-28T01:07:14.010Z,6.82
2022-11-28T01:09:40.694Z,6.84
2022-11-28T01:12:07.411Z,6.86
2022-11-28T01:14:34.030Z,6.79
2022-11-28T01:17:00.627Z,6.69
2022-11-28T01:19:27.307Z,6.67
2022-11-28T01:21:53.980Z,6.65
2022-11-28T01:24:20.577Z,6.55
2022-11-28T01:26:47.237Z,6.51
2022-11-28T01:29:13.822Z,6.47
2022-11-28T01:31:40.490Z,6.46
2022-11-28T01:34:07.153Z,6.49
2022-11-28T01:36:33.736Z,6.44
2022-11-28T01:39:00.343Z,6.37
2022-11-28T01:41:26.948Z,6.37
2022-11-28T01:43:53.530Z,6.25
2022-11-28T01:46:20.214Z,6.16
2022-11-28T01:48:46.871Z,6.13
2022-11-28T01:51:13.549Z,6.15
2022-11-28T01:53:40.154Z,6.21
2022-11-28T01:56:06.746Z,6.03
2022-11-28T01:58:33.373Z,6.00
2022-11-28T02:01:00.056Z,5.96
2022-11-28T02:03:26.815Z,6.02
2022-11-28T02:05:53.427Z,6.03
2022-11-28T02:08:20.075Z,5.99
2022-11-28T02:10:46.718Z,6.03
2022-11-28T02:13:13.346Z,5.82
2022-11-28T02:15:39.971Z,5.46
2022-11-28T02:18:06.644Z,5.36
2022-11-28T02:20:33.301Z,5.49
2022-11-28T02:22:59.898Z,5.59
2022-11-28T02:25:26.574Z,5.60
2022-11-28T02:27:53.205Z,5.55
2022-11-28T02:30:19.792Z,5.52
2022-11-28T02:32:46.407Z,5.54
2022-11-28T02:35:13.010Z,5.60
2022-11-28T02:37:39.703Z,5.67
2022-11-28T02:40:06.375Z,5.67
2022-11-28T02:42:33.073Z,5.68
2022-11-28T02:44:59.680Z,5.53
2022-11-28T02:47:26.370Z,5.43
2022-11-28T02:49:53.032Z,5.37
2022-11-28T02:52:19.685Z,5.35
2022-11-28T02:54:46.358Z,5.46
2022-11-28T02:57:12.964Z,5.62
2022-11-28T02:59:39.611Z,5.46
2022-11-28T03:02:06.251Z,5.22
2022-11-28T03:04:32.967Z,5.60
2022-11-28T03:06:59.568Z,5.79
2022-11-28T03:09:26.235Z,5.90
2022-11-28T03:11:52.868Z,5.88
2022-11-28T03:14:19.489Z,5.63
2022-11-28T03:16:46.157Z,5.80
2022-11-28T03:19:12.795Z,5.89
2022-11-28T03:21:39.486Z,6.04
2022-11-28T03:24:06.114Z,5.70
2022-11-28T03:26:32.773Z,5.95
2022-11-28T03:28:59.438Z,6.00
2022-11-28T03:31:26.187Z,5.89
2022-11-28T03:33:52.934Z,6.21
2022-11-28T03:36:19.570Z,6.01
2022-11-28T03:38:46.238Z,6.09
2022-11-28T03:41:12.903Z,6.22
2022-11-28T03:43:39.546Z,6.06
2022-11-28T03:46:06.188Z,6.26
2022-11-28T03:48:32.796Z,6.13
2022-11-28T03:50:59.435Z,6.07
2022-11-28T03:53:26.070Z,6.19
2022-11-28T03:55:52.764Z,6.33
2022-11-28T03:58:19.418Z,6.23
2022-11-28T04:00:46.163Z,6.37
2022-11-28T04:03:12.795Z,6.30
2022-11-28T04:05:39.452Z,6.34
2022-11-28T04:08:06.081Z,6.41
2022-11-28T04:10:32.682Z,6.36
2022-11-28T04:12:59.347Z,6.22
2022-11-28T04:15:25.987Z,6.28
2022-11-28T04:17:52.632Z,6.46
2022-11-28T04:20:19.312Z,6.52
2022-11-28T04:22:45.980Z,6.53
2022-11-28T04:25:12.572Z,6.50
2022-11-28T04:27:39.201Z,6.60
2022-11-28T04:30:05.797Z,6.61
2022-11-28T04:32:32.377Z,6.48
2022-11-28T04:34:59.044Z,6.46
2022-11-28T04:37:25.689Z,6.54
2022-11-28T04:39:52.328Z,6.63
2022-11-28T04:42:18.924Z,6.69
2022-11-28T04:44:45.608Z,6.55
2022-11-28T04:47:12.298Z,6.57
2022-11-28T04:49:38.968Z,6.39
2022-11-28T04:52:05.634Z,6.29
2022-11-28T04:54:32.229Z,6.08
2022-11-28T04:56:58.928Z,6.25
2022-11-28T04:59:25.570Z,6.40
2022-11-28T05:01:52.236Z,6.45
2022-11-28T05:04:18.951Z,6.48
2022-11-28T05:06:45.567Z,6.53
2022-11-28T05:09:12.250Z,6.46
2022-11-28T05:11:38.864Z,6.48
2022-11-28T05:14:05.447Z,6.57
2022-11-28T05:16:32.113Z,6.60
2022-11-28T05:18:58.785Z,6.66
2022-11-28T05:21:25.478Z,6.39
2022-11-28T05:23:52.107Z,6.48
2022-11-28T05:26:18.694Z,6.61
2022-11-28T05:28:45.316Z,6.65
2022-11-28T05:31:11.991Z,6.53
2022-11-28T05:33:38.688Z,6.51
2022-11-28T05:36:08.599Z,6.20
2022-11-28T05:38:39.154Z,6.29
2022-11-28T05:41:05.825Z,6.45
2022-11-28T05:43:32.434Z,6.55
2022-11-28T05:45:59.134Z,6.42
2022-11-28T05:48:25.777Z,6.13
2022-11-28T05:50:52.454Z,6.27
2022-11-28T05:53:19.037Z,6.19
2022-11-28T05:55:45.647Z,6.13
2022-11-28T05:58:12.284Z,6.21
2022-11-28T06:00:38.889Z,6.18
2022-11-28T06:03:05.505Z,6.07
2022-11-28T06:05:42.903Z,6.18
2022-11-28T06:08:10.073Z,6.29
2022-11-28T06:10:36.692Z,6.25
2022-11-28T06:13:03.312Z,6.29
2022-11-28T06:15:32.653Z,6.01
2022-11-28T06:18:01.572Z,5.99
2022-11-28T06:20:28.298Z,5.87
2022-11-28T06:22:54.938Z,5.98
2022-11-28T06:25:21.583Z,6.10
2022-11-28T06:27:48.194Z,6.05
2022-11-28T06:30:14.839Z,6.27
2022-11-28T06:32:41.474Z,6.20
2022-11-28T06:35:08.087Z,6.20
2022-11-28T06:37:34.673Z,6.24
2022-11-28T06:40:01.261Z,6.41
2022-11-28T06:42:27.920Z,6.31
2022-11-28T06:44:54.580Z,5.89
2022-11-28T06:47:21.205Z,5.75
2022-11-28T06:49:47.836Z,5.50
2022-11-28T06:52:14.724Z,5.30
2022-11-28T06:54:41.355Z,5.17
2022-11-28T06:57:08.069Z,4.99
2022-11-28T06:59:34.681Z,4.96
2022-11-28T07:02:06.983Z,5.28
2022-11-28T07:04:34.334Z,5.27
2022-11-28T07:07:00.968Z,5.43
2022-11-28T07:09:27.623Z,5.55
2022-11-28T07:11:54.280Z,5.67
2022-11-28T07:14:20.924Z,5.71
2022-11-28T07:16:47.623Z,5.51
2022-11-28T07:19:14.302Z,5.40
2022-11-28T07:21:41.027Z,5.46
2022-11-28T07:24:07.747Z,5.59
2022-11-28T07:29:18.740Z,5.50
2022-11-28T07:31:45.353Z,5.52
2022-11-28T07:34:12.023Z,5.65
2022-11-28T07:36:38.646Z,5.74
2022-11-28T07:39:05.251Z,5.78
2022-11-28T07:41:31.964Z,5.94
2022-11-28T07:43:58.850Z,6.24
2022-11-28T07:46:25.609Z,6.41
2022-11-28T07:48:52.304Z,6.41
2022-11-28T07:51:18.922Z,6.15
2022-11-28T07:53:45.547Z,6.26
2022-11-28T07:56:12.137Z,6.15
2022-11-28T07:58:38.800Z,5.81
2022-11-28T08:01:05.496Z,5.75
2022-11-28T08:03:32.184Z,6.06
2022-11-28T08:08:45.514Z,5.65
2022-11-28T08:11:12.175Z,6.09
2022-11-28T08:13:38.872Z,6.18
2022-11-28T08:16:05.482Z,6.25
2022-11-28T08:18:32.157Z,6.25
2022-11-28T08:20:58.858Z,5.80
2022-11-28T08:23:25.576Z,5.86
2022-11-28T08:25:52.271Z,6.13
2022-11-28T08:28:18.937Z,6.12
2022-11-28T08:30:45.642Z,6.39
2022-11-28T08:33:12.356Z,6.51
2022-11-28T08:35:39.036Z,6.53
2022-11-28T08:38:05.679Z,6.57
2022-11-28T08:40:32.300Z,6.89
2022-11-28T08:43:00.000Z,7.18
2022-11-28T08:45:26.676Z,7.42
2022-11-28T08:47:53.347Z,7.39
2022-11-28T08:50:20.012Z,7.41
2022-11-28T08:52:46.623Z,7.46
2022-11-28T08:55:13.242Z,7.40
2022-11-28T08:57:39.888Z,6.57
2022-11-28T09:00:06.579Z,6.64
2022-11-28T09:02:33.185Z,7.01
2022-11-28T09:04:59.822Z,7.10
2022-11-28T09:07:26.527Z,6.54
2022-11-28T09:09:53.253Z,6.34
2022-11-28T09:12:19.887Z,6.75
2022-11-28T09:14:46.522Z,6.80
2022-11-28T09:17:13.332Z,6.84
2022-11-28T09:19:40.416Z,7.22
2022-11-28T09:22:07.566Z,7.37
2022-11-28T09:24:34.154Z,7.49
2022-11-28T09:27:00.806Z,7.60
2022-11-28T09:29:27.425Z,6.87
2022-11-28T09:31:54.078Z,7.21
2022-11-28T09:34:20.736Z,7.39
2022-11-28T09:36:47.486Z,7.28
2022-11-28T09:39:14.221Z,7.21
2022-11-28T09:41:40.870Z,7.56
2022-11-28T09:44:07.498Z,8.09
2022-11-28T09:46:34.225Z,8.27
2022-11-28T09:49:00.953Z,8.47
2022-11-28T09:51:27.589Z,8.55
2022-11-28T09:53:54.229Z,8.77
2022-11-28T09:56:20.838Z,8.60
2022-11-28T09:58:47.443Z,8.75
2022-11-28T10:01:14.121Z,8.71
2022-11-28T10:03:40.822Z,8.89
2022-11-28T10:06:07.553Z,8.80
2022-11-28T10:08:34.198Z,8.80
2022-11-28T10:11:00.924Z,8.98
2022-11-28T10:13:41.253Z,9.04
2022-11-28T10:16:13.948Z,9.21
2022-11-28T10:18:40.669Z,9.31
2022-11-28T10:21:07.329Z,9.51
2022-11-28T10:23:33.965Z,9.63
2022-11-28T10:26:00.557Z,9.73
2022-11-28T10:28:28.572Z,9.62
2022-11-28T10:30:55.325Z,9.86
2022-11-28T10:33:24.838Z,9.67
2022-11-28T10:35:51.718Z,9.91
2022-11-28T10:38:18.429Z,10.01
2022-11-28T10:40:45.027Z,10.03
2022-11-28T10:43:11.664Z,10.43
2022-11-28T10:45:38.263Z,10.84
2022-11-28T10:48:37.233Z,10.95
2022-11-28T10:50:51.977Z,11.08
2022-11-28T10:53:18.654Z,10.07
2022-11-28T10:55:45.345Z,9.62
2022-11-28T10:58:11.947Z,10.08
2022-11-28T11:00:38.585Z,10.53
2022-11-28T11:03:05.219Z,10.01
2022-11-28T11:05:31.827Z,9.84
2022-11-28T11:07:58.628Z,10.10
2022-11-28T11:10:25.275Z,10.64
2022-11-28T11:12:51.898Z,10.96
2022-11-28T11:15:18.546Z,10.75
2022-11-28T11:17:45.199Z,10.67
2022-11-28T11:20:11.844Z,10.05
2022-11-28T11:22:38.494Z,9.98
2022-11-28T11:25:05.155Z,10.22
2022-11-28T11:27:31.835Z,10.38
2022-11-28T11:29:58.467Z,10.54
2022-11-28T11:32:25.057Z,10.62
2022-11-28T11:34:51.734Z,10.80
2022-11-28T11:37:18.344Z,10.83
2022-11-28T11:39:45.145Z,10.62
2022-11-28T11:42:11.821Z,10.74
2022-11-28T11:44:38.500Z,10.58
2022-11-28T11:47:05.221Z,10.68
2022-11-28T11:49:31.884Z,11.02
2022-11-28T11:51:58.559Z,10.58
2022-11-28T11:54:25.200Z,9.33
2022-11-28T11:57:05.678Z,8.46
2022-11-28T11:59:38.155Z,8.86
2022-11-28T12:02:04.950Z,9.46
2022-11-28T12:04:45.005Z,10.09
2022-11-28T12:07:13.088Z,9.80
2022-11-28T12:09:39.825Z,9.33
2022-11-28T12:12:06.517Z,9.78
2022-11-28T12:14:33.163Z,10.11
2022-11-28T12:16:59.820Z,10.18
2022-11-28T12:19:26.440Z,9.82
2022-11-28T12:21:53.125Z,10.23
2022-11-28T12:24:19.727Z,10.74
2022-11-28T12:26:46.341Z,11.12
2022-11-28T12:29:13.024Z,11.06
2022-11-28T12:31:39.655Z,10.14
2022-11-28T12:34:06.356Z,9.75
2022-11-28T12:36:32.977Z,9.39
2022-11-28T12:38:59.661Z,9.70
2022-11-28T12:41:31.957Z,9.62
2022-11-28T12:43:59.178Z,10.04
2022-11-28T12:46:25.920Z,9.93
2022-11-28T12:48:53.592Z,9.59
2022-11-28T12:51:20.383Z,10.20
2022-11-28T12:53:47.027Z,9.82
2022-11-28T12:56:13.660Z,8.98
2022-11-28T12:58:40.360Z,8.90
2022-11-28T13:01:07.029Z,9.73
2022-11-28T13:03:33.756Z,9.69
2022-11-28T13:06:00.454Z,10.06
2022-11-28T13:08:27.189Z,10.45
2022-11-28T13:10:53.870Z,10.02
2022-11-28T13:13:20.516Z,9.05
2022-11-28T13:15:47.235Z,8.96
2022-11-28T13:18:13.878Z,9.56
2022-11-28T13:20:40.563Z,9.95
2022-11-28T13:23:07.172Z,10.03
2022-11-28T13:25:33.800Z,10.19
2022-11-28T13:28:00.455Z,9.45
2022-11-28T13:30:27.072Z,8.74
2022-11-28T13:32:53.796Z,8.29
2022-11-28T13:35:20.481Z,8.96
2022-11-28T13:40:33.725Z,9.77
2022-11-28T13:43:06.373Z,10.13
2022-11-28T13:45:33.484Z,10.01
2022-11-28T13:48:00.104Z,10.14
2022-11-28T13:50:26.743Z,9.80
2022-11-28T13:52:53.347Z,9.30
2022-11-28T13:55:20.018Z,9.65
2022-11-28T13:57:46.632Z,9.77
2022-11-28T14:00:13.310Z,9.71
2022-11-28T14:02:41.907Z,9.90
2022-11-28T14:05:08.823Z,10.06
2022-11-28T14:07:35.517Z,10.29
2022-11-28T14:10:02.225Z,10.06
2022-11-28T14:12:28.861Z,9.97
2022-11-28T14:14:55.498Z,10.06
2022-11-28T14:17:23.042Z,10.32
2022-11-28T14:19:49.673Z,9.92
2022-11-28T14:22:16.358Z,10.01
2022-11-28T14:24:43.230Z,9.48
2022-11-28T14:27:09.977Z,9.19
2022-11-28T14:29:36.577Z,8.79
2022-11-28T14:34:49.905Z,8.75
2022-11-28T14:37:16.538Z,8.85
2022-11-28T14:39:43.231Z,8.95
2022-11-28T14:42:09.950Z,9.38
2022-11-28T14:44:36.569Z,9.62
2022-11-28T14:47:03.253Z,9.69
2022-11-28T14:49:29.968Z,9.79
2022-11-28T14:52:15.946Z,9.84
2022-11-28T14:54:43.647Z,9.29
2022-11-28T14:57:10.571Z,8.93
2022-11-28T14:59:37.178Z,8.86
2022-11-28T15:02:03.891Z,8.36
2022-11-28T15:04:30.548Z,8.69
2022-11-28T15:06:57.203Z,9.15
2022-11-28T15:09:23.829Z,9.48
2022-11-28T15:11:50.471Z,9.73
2022-11-28T15:14:18.127Z,9.84
2022-11-28T15:16:49.832Z,9.98
2022-11-28T15:19:16.974Z,9.71
2022-11-28T15:21:43.594Z,9.64
2022-11-28T15:24:10.215Z,9.81
2022-11-28T15:26:36.890Z,9.93
2022-11-28T15:29:03.665Z,10.02
2022-11-28T15:31:30.306Z,10.11
2022-11-28T15:33:56.987Z,10.10
2022-11-28T15:36:23.585Z,10.14
2022-11-28T15:38:50.223Z,10.18
2022-11-28T15:41:16.819Z,10.22
2022-11-28T15:43:43.511Z,10.21
2022-11-28T15:46:10.102Z,10.23
2022-11-28T15:48:39.801Z,10.31
2022-11-28T15:51:07.055Z,10.31
2022-11-28T15:53:33.711Z,10.26
2022-11-28T15:56:00.364Z,10.20
2022-11-28T15:58:27.015Z,10.10
2022-11-28T16:00:53.765Z,10.29
2022-11-28T16:03:20.392Z,10.41
2022-11-28T16:05:47.066Z,10.53
2022-11-28T16:08:13.778Z,10.56
2022-11-28T16:10:40.522Z,10.59
2022-11-28T16:13:07.249Z,10.54
2022-11-28T16:15:33.923Z,10.53
2022-11-28T16:18:00.609Z,10.53
2022-11-28T16:20:27.226Z,10.46
2022-11-28T16:22:53.952Z,10.40
2022-11-28T16:25:20.599Z,10.29
2022-11-28T16:27:47.223Z,10.30
2022-11-28T16:30:13.816Z,10.32
2022-11-28T16:32:40.473Z,10.33
2022-11-28T16:35:07.110Z,10.33
2022-11-28T16:37:33.727Z,10.30
2022-11-28T16:40:00.355Z,10.26
2022-11-28T16:42:27.039Z,10.23
2022-11-28T16:44:53.691Z,10.22
2022-11-28T16:47:20.383Z,10.24
2022-11-28T16:49:47.069Z,10.32
2022-11-28T16:52:13.665Z,10.44
2022-11-28T16:54:40.300Z,10.35
2022-11-28T16:57:06.950Z,10.32
2022-11-28T16:59:33.628Z,10.30
2022-11-28T17:02:00.334Z,10.29
2022-11-28T17:04:27.014Z,10.33
2022-11-28T17:06:53.624Z,10.24
2022-11-28T17:09:20.301Z,10.33
2022-11-28T17:11:47.051Z,10.34
2022-11-28T17:14:14.135Z,10.40
2022-11-28T17:16:40.881Z,10.50
2022-11-28T17:19:07.536Z,10.40
2022-11-28T17:21:34.171Z,10.28
2022-11-28T17:24:00.812Z,10.16
2022-11-28T17:26:27.393Z,10.28
2022-11-28T17:28:54.063Z,10.37
2022-11-28T17:31:20.717Z,10.45
2022-11-28T17:33:47.330Z,10.52
2022-11-28T17:36:13.989Z,10.46
2022-11-28T17:38:40.652Z,10.44
2022-11-28T17:41:07.330Z,10.37
2022-11-28T17:43:38.906Z,10.29
2022-11-28T17:46:06.031Z,10.27
2022-11-28T17:48:32.703Z,10.07
2022-11-28T17:50:59.357Z,10.06
2022-11-28T17:53:26.000Z,9.94
2022-11-28T17:55:52.649Z,10.09
2022-11-28T17:58:19.354Z,10.13
2022-11-28T18:00:46.068Z,10.20
2022-11-28T18:03:12.764Z,10.12
2022-11-28T18:05:39.447Z,10.00
2022-11-28T18:08:06.070Z,9.57
2022-11-28T18:10:32.900Z,9.66
2022-11-28T18:12:59.523Z,9.86
2022-11-28T18:15:26.191Z,9.88
2022-11-28T18:17:52.836Z,9.93
2022-11-28T18:20:19.516Z,9.50
2022-11-28T18:22:46.145Z,9.05
2022-11-28T18:25:12.850Z,8.82
2022-11-28T18:27:39.526Z,8.70
2022-11-28T18:30:06.136Z,8.84
2022-11-28T18:32:32.826Z,9.25
2022-11-28T18:34:59.524Z,9.56
2022-11-28T18:37:26.185Z,9.29
2022-11-28T18:39:52.941Z,9.18
2022-11-28T18:42:19.605Z,9.41
2022-11-28T18:44:46.304Z,9.43
2022-11-28T18:47:12.968Z,9.32
2022-11-28T18:49:39.612Z,9.60
2022-11-28T18:52:06.281Z,9.51
2022-11-28T18:54:32.883Z,9.65
2022-11-28T18:56:59.556Z,9.50
2022-11-28T18:59:26.244Z,9.25
2022-11-28T19:01:52.907Z,9.21
2022-11-28T19:04:19.582Z,9.40
2022-11-28T19:06:46.218Z,9.21
2022-11-28T19:09:12.853Z,9.40
2022-11-28T19:11:39.524Z,9.40
2022-11-28T19:14:06.152Z,9.58
2022-11-28T19:16:32.835Z,9.68
2022-11-28T19:18:59.561Z,9.65
2022-11-28T19:21:26.208Z,9.47
2022-11-28T19:23:52.843Z,9.59
2022-11-28T19:26:19.466Z,9.18
2022-11-28T19:28:46.112Z,9.29
2022-11-28T19:31:12.822Z,9.54
2022-11-28T19:33:39.487Z,9.46
2022-11-28T19:36:06.210Z,9.18
2022-11-28T19:38:32.852Z,9.21
2022-11-28T19:40:59.553Z,9.41
2022-11-28T19:43:26.296Z,9.47
2022-11-28T19:45:53.012Z,9.46
2022-11-28T19:48:19.701Z,9.40
2022-11-28T19:50:46.345Z,9.46
2022-11-28T19:53:12.981Z,9.65
2022-11-28T19:55:39.627Z,9.40
2022-11-28T19:58:06.258Z,9.34
2022-11-28T20:00:32.885Z,9.53
2022-11-28T20:02:59.562Z,9.50
2022-11-28T20:05:26.316Z,9.53
2022-11-28T20:07:58.175Z,9.45
2022-11-28T20:10:25.250Z,9.39
2022-11-28T20:12:51.870Z,9.48
2022-11-28T20:15:18.620Z,9.49
2022-11-28T20:17:45.345Z,9.19
2022-11-28T20:20:12.031Z,9.26
2022-11-28T20:22:38.749Z,9.07
2022-11-28T20:25:05.464Z,9.22
2022-11-28T20:27:32.126Z,9.30
2022-11-28T20:29:58.760Z,9.38
2022-11-28T20:32:25.461Z,9.45
2022-11-28T20:34:52.158Z,9.45
2022-11-28T20:37:21.389Z,8.61
2022-11-28T20:39:48.031Z,8.76
2022-11-28T20:42:14.704Z,8.31
2022-11-28T20:44:41.417Z,8.34
2022-11-28T20:47:08.038Z,8.12
2022-11-28T20:49:34.697Z,8.18
2022-11-28T20:52:01.362Z,7.98
2022-11-28T20:54:27.957Z,8.53
2022-11-28T20:59:41.502Z,8.96
2022-11-28T21:02:08.346Z,8.95
2022-11-28T21:04:35.066Z,8.99
2022-11-28T21:07:01.714Z,9.21
2022-11-28T21:09:28.457Z,9.30
2022-11-28T21:11:57.898Z,8.98
2022-11-28T21:14:25.744Z,9.22
2022-11-28T21:16:52.480Z,9.18
2022-11-28T21:19:19.152Z,9.20
2022-11-28T21:21:45.744Z,9.16
2022-11-28T21:24:12.435Z,9.28
2022-11-28T21:26:42.177Z,9.29
2022-11-28T21:29:10.807Z,9.32
2022-11-28T21:31:37.492Z,9.27
2022-11-28T21:34:04.167Z,9.26
2022-11-28T21:36:30.771Z,9.38
2022-11-28T21:38:57.420Z,9.42
2022-11-28T21:41:24.081Z,9.46
2022-11-28T21:43:50.714Z,9.37
2022-11-28T21:46:17.439Z,9.26
2022-11-28T21:48:44.131Z,8.99
2022-11-28T21:51:10.783Z,9.09
2022-11-28T21:53:37.450Z,9.21
2022-11-28T21:56:04.080Z,8.97
2022-11-28T21:58:30.696Z,9.11
2022-11-28T22:00:57.327Z,9.03
2022-11-28T22:03:24.003Z,9.01
2022-11-28T22:05:50.649Z,9.11
2022-11-28T22:08:17.300Z,9.07
2022-11-28T22:10:44.015Z,9.17
2022-11-28T22:13:10.614Z,9.11
2022-11-28T22:15:37.235Z,8.96
2022-11-28T22:18:03.952Z,8.86
2022-11-28T22:20:30.566Z,9.06
2022-11-28T22:22:57.235Z,9.18
2022-11-28T22:25:23.847Z,9.24
2022-11-28T22:27:50.513Z,9.31
2022-11-28T22:30:17.373Z,9.27
2022-11-28T22:32:44.082Z,9.33
2022-11-28T22:35:10.706Z,9.30
2022-11-28T22:37:37.377Z,9.26
2022-11-28T22:40:04.015Z,9.28
2022-11-28T22:42:30.664Z,9.33
2022-11-28T22:44:57.255Z,9.29
2022-11-28T22:47:23.865Z,9.09
2022-11-28T22:49:50.457Z,9.18
2022-11-28T22:52:17.155Z,9.32
2022-11-28T22:54:44.089Z,9.35
2022-11-28T22:57:10.965Z,9.26
2022-11-28T22:59:37.556Z,9.14
2022-11-28T23:02:04.342Z,9.05
2022-11-28T23:04:31.625Z,9.09
2022-11-28T23:06:58.253Z,8.91
2022-11-28T23:09:24.931Z,8.45
2022-11-28T23:11:51.549Z,8.68
2022-11-28T23:14:18.178Z,8.77
2022-11-28T23:16:44.893Z,8.30
2022-11-28T23:19:11.640Z,8.30
2022-11-28T23:21:38.285Z,7.76
2022-11-28T23:24:05.003Z,7.93
2022-11-28T23:26:31.715Z,7.82
2022-11-28T23:28:58.321Z,7.90
2022-11-28T23:31:24.961Z,7.33
2022-11-28T23:33:51.681Z,7.48
2022-11-28T23:36:18.316Z,7.64
2022-11-28T23:38:44.927Z,7.46
2022-11-28T23:41:11.576Z,7.46
2022-11-28T23:43:38.201Z,7.75
2022-11-28T23:46:04.868Z,7.77
2022-11-28T23:48:31.504Z,8.11
2022-11-28T23:50:58.138Z,8.11
2022-11-28T23:53:24.789Z,8.09
2022-11-28T23:55:51.444Z,8.11
2022-11-28T23:58:18.077Z,8.09
